createdAt,value
2019-04-27T00:01:27.439Z,19
2019-04-27T00:06:27.399Z,18
2019-04-27T00:11:33.439Z,18
2019-04-27T00:16:33.971Z,15
2019-04-27T00:21:33.020Z,14
2019-04-27T00:26:33.590Z,17
2019-04-27T00:31:33.887Z,18
2019-04-27T00:36:35.399Z,18
2019-04-27T00:41:34.118Z,17
2019-04-27T00:46:33.201Z,16
2019-04-27T00:51:33.474Z,16
2019-04-27T00:56:34.092Z,14
2019-04-27T01:01:33.484Z,15
2019-04-27T01:06:33.779Z,14
2019-04-27T01:11:33.551Z,15
2019-04-27T01:16:32.907Z,16
2019-04-27T01:21:32.894Z,20
2019-04-27T01:26:32.924Z,13
2019-04-27T01:31:32.894Z,14
2019-04-27T01:36:32.849Z,13
2019-04-27T01:41:32.893Z,14
2019-04-27T01:46:32.842Z,13
2019-04-27T01:51:32.893Z,14
2019-04-27T01:56:32.831Z,14
2019-04-27T02:01:32.976Z,15
2019-04-27T02:06:32.859Z,15
2019-04-27T02:11:32.901Z,11
2019-04-27T02:16:37.054Z,12
2019-04-27T02:21:32.855Z,14
2019-04-27T02:26:32.844Z,15
2019-04-27T02:31:32.872Z,14
2019-04-27T02:36:32.825Z,15
2019-04-27T02:41:32.797Z,13
2019-04-27T02:46:32.872Z,13
2019-04-27T02:51:32.870Z,14
2019-04-27T02:56:32.819Z,15
2019-04-27T03:01:33.842Z,16
2019-04-27T03:06:32.797Z,14
2019-04-27T03:11:34.123Z,14
2019-04-27T03:16:32.784Z,15
2019-04-27T03:21:33.555Z,15
2019-04-27T03:26:33.569Z,17
2019-04-27T03:31:33.530Z,15
2019-04-27T03:36:34.893Z,15
2019-04-27T03:41:33.561Z,14
2019-04-27T03:46:33.496Z,16
2019-04-27T03:51:36.461Z,16
2019-04-27T03:56:35.001Z,16
2019-04-27T04:01:35.022Z,17
2019-04-27T04:06:34.980Z,18
2019-04-27T04:11:36.262Z,19
2019-04-27T04:16:34.963Z,16
2019-04-27T04:21:34.938Z,18
2019-04-27T04:26:34.992Z,19
2019-04-27T04:31:36.376Z,17
2019-04-27T04:36:34.942Z,19
2019-04-27T04:41:34.951Z,20
2019-04-27T04:46:34.934Z,17
2019-04-27T04:51:34.976Z,16
2019-04-27T04:56:34.926Z,14
2019-04-27T05:01:34.931Z,23
2019-04-27T05:06:34.945Z,18
2019-04-27T05:11:39.790Z,21
2019-04-27T05:16:39.308Z,18
2019-04-27T05:21:39.109Z,22
2019-04-27T05:26:40.016Z,20
2019-04-27T05:31:39.119Z,19
2019-04-27T05:36:52.684Z,21
2019-04-27T05:41:41.971Z,20
2019-04-27T05:46:39.970Z,19
2019-04-27T05:51:42.180Z,21
2019-04-27T05:56:39.732Z,18
2019-04-27T06:01:39.698Z,19
2019-04-27T06:06:44.481Z,20
2019-04-27T06:11:40.235Z,17
2019-04-27T06:16:39.704Z,19
2019-04-27T06:21:40.410Z,23
2019-04-27T06:26:40.208Z,17
2019-04-27T06:31:39.921Z,20
2019-04-27T06:36:39.719Z,20
2019-04-27T06:41:40.343Z,16
2019-04-27T06:46:40.773Z,17
2019-04-27T06:51:40.312Z,17
2019-04-27T06:56:39.641Z,18
2019-04-27T07:01:39.692Z,17
2019-04-27T07:06:56.373Z,18
2019-04-27T07:11:39.746Z,15
2019-04-27T07:16:39.668Z,16
2019-04-27T07:21:40.337Z,19
2019-04-27T07:26:39.646Z,16
2019-04-27T07:31:40.485Z,17
2019-04-27T07:36:39.664Z,14
2019-04-27T07:41:39.619Z,15
2019-04-27T07:46:39.599Z,17
2019-04-27T07:51:39.628Z,19
2019-04-27T07:56:39.636Z,14
2019-04-27T08:01:39.590Z,15
2019-04-27T08:06:39.609Z,15
2019-04-27T08:11:39.594Z,14
2019-04-27T08:16:39.589Z,15
2019-04-27T08:21:46.735Z,16
2019-04-27T08:26:39.656Z,15
2019-04-27T08:31:39.594Z,14
2019-04-27T08:36:39.574Z,15
2019-04-27T08:41:39.619Z,13
2019-04-27T08:46:39.547Z,16
2019-04-27T08:51:41.768Z,16
2019-04-27T08:56:39.757Z,17
2019-04-27T09:01:39.897Z,18
2019-04-27T09:06:40.839Z,16
2019-04-27T09:11:39.583Z,18
2019-04-27T09:16:39.518Z,17
2019-04-27T09:21:39.658Z,19
2019-04-27T09:26:39.546Z,17
2019-04-27T09:31:39.620Z,17
2019-04-27T09:36:39.509Z,22
2019-04-27T09:41:39.550Z,19
2019-04-27T09:46:39.533Z,16
2019-04-27T11:07:07.347Z,14
2019-04-27T11:12:07.134Z,19
2019-04-27T11:17:06.463Z,18
2019-04-27T11:22:07.689Z,15
2019-04-27T11:27:06.401Z,15
2019-04-27T11:32:06.375Z,15
2019-04-27T11:37:06.352Z,17
2019-04-27T11:42:06.365Z,15
2019-04-27T11:47:06.346Z,15
2019-04-27T11:52:07.771Z,15
2019-04-27T11:57:06.346Z,16
2019-04-27T12:02:06.347Z,21
2019-04-27T12:07:06.684Z,20
2019-04-27T12:12:22.097Z,18
2019-04-27T12:17:06.493Z,23
2019-04-27T12:22:06.381Z,14
2019-04-27T12:27:06.349Z,14
2019-04-27T12:32:06.339Z,10
2019-04-27T12:37:07.428Z,11
2019-04-27T12:42:06.363Z,12
2019-04-27T12:47:06.438Z,13
2019-04-27T12:52:06.296Z,11
2019-04-27T12:57:06.323Z,11
2019-04-27T13:02:06.428Z,12
2019-04-27T13:07:06.273Z,15
2019-04-27T13:12:06.365Z,10
2019-04-27T13:17:06.439Z,14
2019-04-27T13:22:06.352Z,10
2019-04-27T13:27:06.614Z,11
2019-04-27T13:32:06.253Z,12
2019-04-27T13:37:06.269Z,11
2019-04-27T13:42:06.766Z,12
2019-04-27T13:47:08.202Z,12
2019-04-27T13:52:06.305Z,13
2019-04-27T13:57:07.747Z,14
2019-04-27T14:02:06.259Z,13
2019-04-27T14:07:06.247Z,12
2019-04-27T14:12:06.247Z,13
2019-04-27T14:17:10.067Z,15
2019-04-27T14:22:06.280Z,13
2019-04-27T14:27:06.232Z,16
2019-04-27T14:32:06.261Z,13
2019-04-27T14:37:06.202Z,15
2019-04-27T14:42:08.571Z,14
2019-04-27T14:47:08.343Z,14
2019-04-27T14:52:06.241Z,15
2019-04-27T14:57:06.262Z,37
2019-04-27T15:02:06.198Z,19
2019-04-27T15:07:06.212Z,17
2019-04-27T15:12:06.168Z,16
2019-04-27T15:17:06.990Z,20
2019-04-27T15:22:06.157Z,14
2019-04-27T15:27:06.205Z,15
2019-04-27T15:36:14.716Z,16
2019-04-27T15:41:09.039Z,18
2019-04-27T15:46:08.447Z,19
2019-04-27T15:51:21.340Z,14
2019-04-27T15:56:09.053Z,20
2019-04-27T16:06:51.416Z,22
2019-04-27T16:12:12.956Z,20
2019-04-27T16:16:51.337Z,24
2019-04-27T16:21:54.627Z,24
2019-04-27T16:26:56.323Z,19
2019-04-27T16:27:49.183Z,21
2019-04-27T16:32:59.538Z,20
2019-04-27T16:38:00.289Z,26
2019-04-27T16:43:00.759Z,25
2019-04-27T16:48:02.268Z,30
2019-04-27T16:55:01.015Z,27
2019-04-27T16:58:00.275Z,25
2019-04-27T17:03:06.913Z,27
2019-04-27T17:07:59.894Z,25
2019-04-27T17:12:59.808Z,27
2019-04-27T17:17:59.741Z,27
2019-04-27T17:22:59.713Z,26
2019-04-27T17:28:05.351Z,26
2019-04-27T17:52:59.224Z,26
2019-04-27T17:58:06.681Z,26
2019-04-27T18:02:58.130Z,28
2019-04-27T18:07:58.144Z,25
2019-04-27T18:12:58.450Z,27
2019-04-27T18:17:58.586Z,24
2019-04-27T18:22:58.146Z,26
2019-04-27T18:27:58.414Z,30
2019-04-27T18:33:02.407Z,31
2019-04-27T18:38:02.124Z,30
2019-04-27T18:42:57.509Z,30
2019-04-27T18:47:59.511Z,31
2019-04-27T18:52:58.248Z,33
2019-04-27T18:58:02.269Z,31
2019-04-27T19:02:58.658Z,32
2019-04-27T19:07:57.449Z,36
2019-04-27T19:12:58.668Z,29
2019-04-27T19:17:58.357Z,31
2019-04-27T19:22:57.458Z,32
2019-04-27T19:49:51.599Z,30
2019-04-27T19:54:51.555Z,28
2019-04-27T19:59:51.668Z,27
2019-04-27T20:04:51.571Z,30
2019-04-27T20:09:51.564Z,30
2019-04-27T20:14:51.550Z,30
2019-04-27T20:19:51.801Z,30
2019-04-27T20:24:51.600Z,26
2019-04-27T20:29:51.539Z,27
2019-04-27T20:34:51.620Z,27
2019-04-27T20:39:51.737Z,32
2019-04-27T21:00:22.233Z,29
2019-04-27T21:05:22.303Z,25
2019-04-27T21:10:22.212Z,22
2019-04-27T21:15:22.207Z,24
2019-04-27T21:20:22.233Z,21
2019-04-27T21:25:22.216Z,17
2019-04-27T21:30:22.228Z,19
2019-04-27T21:35:22.196Z,19
2019-04-27T21:40:22.182Z,18
